Time;durP1;ratioP1;P1;durP2;ratioP2;P2;SDS_P1;SDS_P2;PMS_P1;PMS_P2;Temp;Humidity;BMP_temperature;BMP_pressure;BME280_temperature;BME280_humidity;BME280_pressure;Samples;Min_cycle;Max_cycle;Signal;HPM_P1;HPM_P2
2021/05/19 00:41:30;;;;;;;11.10;8.60;;;;;;;;;;4944305;28;20442;-82
2021/05/19 00:50:32;;;;;;;9.80;8.77;;;;;;;;;;4825551;29;20499;-82
2021/05/19 00:53:18;;;;;;;;;;;;;;;;;;;;;
2021/05/19 00:55:45;;;;;;;11.50;9.30;;;;;;;;;;5034306;28;20465;-82
2021/05/19 00:58:15;;;;;;;10.00;9.00;;;;;;;;;;5069502;28;20539;-82
2021/05/19 01:00:42;;;;;;;12.33;8.63;;;;;;;;;;5066149;28;20444;-82
2021/05/19 01:03:09;;;;;;;12.27;9.10;;;;;;;;;;5064548;28;20475;-81
2021/05/19 01:05:39;;;;;;;9.40;8.30;;;;;;;;;;5052164;28;20475;-83
2021/05/19 01:10:47;;;;;;;8.67;7.77;;;;;;;;;;5074539;28;20462;-84
2021/05/19 01:13:16;;;;;;;9.90;8.27;;;;;;;;;;5074434;28;21054;-81
2021/05/19 01:15:43;;;;;;;13.07;8.50;;;;;;;;;;5073652;28;20521;-82
2021/05/19 01:18:10;;;;;;;9.37;8.47;;;;;;;;;;5060255;28;20523;-84
2021/05/19 01:20:37;;;;;;;9.87;8.87;;;;;;;;;;5054028;28;20437;-83
2021/05/19 01:23:06;;;;;;;13.23;7.83;;;;;;;;;;5051510;28;20852;-83
2021/05/19 01:25:33;;;;;;;8.33;7.27;;;;;;;;;;5052121;28;20484;-82
2021/05/19 01:28:00;;;;;;;10.10;8.70;;;;;;;;;;5052326;28;20503;-83
2021/05/19 01:30:28;;;;;;;9.17;7.63;;;;;;;;;;5070050;28;20464;-85
2021/05/19 01:32:56;;;;;;;8.73;7.83;;;;;;;;;;5074372;28;20960;-81
2021/05/19 01:35:22;;;;;;;8.80;7.50;;;;;;;;;;5074461;28;20463;-81
2021/05/19 01:37:49;;;;;;;8.80;8.00;;;;;;;;;;5073928;28;20444;-83
2021/05/19 01:40:18;;;;;;;8.00;7.17;;;;;;;;;;5060167;28;20797;-83
2021/05/19 01:42:46;;;;;;;9.17;8.03;;;;;;;;;;5055446;28;20494;-83
2021/05/19 01:45:14;;;;;;;8.57;7.73;;;;;;;;;;5051142;28;20461;-83
2021/05/19 01:47:42;;;;;;;11.70;8.40;;;;;;;;;;5052141;28;20446;-82
2021/05/19 01:50:10;;;;;;;8.23;7.43;;;;;;;;;;5051946;28;20445;-82
2021/05/19 01:52:41;;;;;;;8.83;7.90;;;;;;;;;;5069794;28;20484;-83
2021/05/19 01:55:08;;;;;;;9.17;7.97;;;;;;;;;;5074154;28;20527;-82
2021/05/19 01:57:36;;;;;;;7.93;7.20;;;;;;;;;;5074092;28;20502;-82
2021/05/19 02:00:04;;;;;;;9.43;8.00;;;;;;;;;;5073001;28;20444;-83
2021/05/19 02:02:30;;;;;;;10.50;8.70;;;;;;;;;;5059262;28;20836;-83
2021/05/19 02:04:58;;;;;;;9.00;8.10;;;;;;;;;;5054940;28;20465;-81
2021/05/19 02:07:24;;;;;;;8.53;7.73;;;;;;;;;;5051819;28;20452;-82
2021/05/19 02:09:51;;;;;;;10.17;8.23;;;;;;;;;;5051522;28;20453;-84
2021/05/19 02:12:18;;;;;;;11.40;8.70;;;;;;;;;;5051400;28;20488;-83
2021/05/19 02:14:45;;;;;;;9.30;8.23;;;;;;;;;;5068446;28;20476;-84
2021/05/19 02:17:12;;;;;;;12.07;9.07;;;;;;;;;;5069403;28;20442;-83
2021/05/19 02:19:39;;;;;;;11.53;10.10;;;;;;;;;;5059262;28;20441;-83
2021/05/19 02:22:06;;;;;;;11.07;8.83;;;;;;;;;;5066999;28;20840;-82
2021/05/19 02:24:34;;;;;;;10.83;8.60;;;;;;;;;;5071152;28;20480;-83
2021/05/19 02:27:00;;;;;;;11.30;8.73;;;;;;;;;;5071733;28;20443;-82
2021/05/19 02:29:27;;;;;;;11.23;9.97;;;;;;;;;;5071102;28;20469;-81
2021/05/19 02:31:55;;;;;;;10.97;9.87;;;;;;;;;;5072846;28;20456;-84
2021/05/19 02:34:22;;;;;;;10.53;9.43;;;;;;;;;;5073205;28;20469;-82
2021/05/19 02:36:49;;;;;;;12.70;10.33;;;;;;;;;;5072748;28;20809;-81
2021/05/19 02:39:15;;;;;;;12.20;10.40;;;;;;;;;;5072317;28;20857;-83
2021/05/19 02:41:42;;;;;;;11.73;10.57;;;;;;;;;;5058577;28;20450;-82
2021/05/19 02:44:09;;;;;;;11.17;10.00;;;;;;;;;;5064866;28;20461;-81
2021/05/19 02:46:36;;;;;;;12.37;10.33;;;;;;;;;;5070000;28;20451;-83
2021/05/19 02:49:05;;;;;;;16.07;11.80;;;;;;;;;;5069646;28;20445;-83
2021/05/19 02:51:32;;;;;;;13.10;11.63;;;;;;;;;;5070594;28;20820;-83
2021/05/19 02:53:59;;;;;;;13.50;11.53;;;;;;;;;;5070868;28;20492;-85
2021/05/19 02:56:26;;;;;;;11.53;10.33;;;;;;;;;;5072745;28;20445;-81
2021/05/19 02:58:53;;;;;;;12.97;11.40;;;;;;;;;;5072970;28;20444;-81
2021/05/19 03:01:20;;;;;;;13.90;12.47;;;;;;;;;;5072986;28;20944;-83
2021/05/19 03:03:47;;;;;;;13.20;11.80;;;;;;;;;;5057091;28;20436;-83
2021/05/19 03:06:14;;;;;;;12.07;10.77;;;;;;;;;;5063848;28;20444;-85
2021/05/19 03:08:41;;;;;;;13.87;12.37;;;;;;;;;;5070587;28;20513;-82
2021/05/19 03:11:08;;;;;;;14.53;12.20;;;;;;;;;;5070501;28;20451;-83
2021/05/19 03:13:35;;;;;;;17.13;12.40;;;;;;;;;;5070220;28;20479;-86
2021/05/19 03:16:01;;;;;;;12.50;11.23;;;;;;;;;;5071895;28;20456;-85
2021/05/19 03:18:29;;;;;;;13.43;11.10;;;;;;;;;;5072604;28;20929;-82
2021/05/19 03:20:56;;;;;;;12.93;10.43;;;;;;;;;;5072485;28;20506;-84
2021/05/19 03:23:24;;;;;;;13.40;12.00;;;;;;;;;;5072570;28;20440;-82
2021/05/19 03:25:50;;;;;;;13.10;11.17;;;;;;;;;;5057955;28;20825;-81
2021/05/19 03:28:17;;;;;;;11.70;10.50;;;;;;;;;;5063020;28;20832;-82
2021/05/19 03:30:44;;;;;;;11.00;9.80;;;;;;;;;;5070385;28;20470;-82
2021/05/19 03:33:11;;;;;;;12.47;11.07;;;;;;;;;;5069023;28;20477;-82
2021/05/19 03:35:37;;;;;;;13.00;11.03;;;;;;;;;;5069985;28;20509;-81
2021/05/19 03:38:04;;;;;;;12.10;10.90;;;;;;;;;;5071401;28;20467;-83
2021/05/19 03:40:32;;;;;;;13.60;11.10;;;;;;;;;;5072536;28;20482;-81
2021/05/19 03:42:59;;;;;;;11.53;10.40;;;;;;;;;;5072506;28;20429;-81
2021/05/19 03:45:26;;;;;;;10.93;9.83;;;;;;;;;;5072299;28;20464;-84
2021/05/19 03:47:54;;;;;;;15.03;10.40;;;;;;;;;;5057740;28;20434;-83
2021/05/19 03:50:21;;;;;;;10.37;9.27;;;;;;;;;;5062288;28;20817;-82
2021/05/19 03:52:48;;;;;;;11.10;10.00;;;;;;;;;;5070052;28;20698;-81
2021/05/19 03:55:15;;;;;;;10.40;8.50;;;;;;;;;;5070074;28;20512;-82
2021/05/19 03:57:43;;;;;;;13.03;8.77;;;;;;;;;;5068673;28;20451;-83
2021/05/19 04:00:11;;;;;;;10.20;8.60;;;;;;;;;;5071560;28;20810;-84
2021/05/19 04:02:38;;;;;;;10.30;9.27;;;;;;;;;;5070996;28;20436;-82
2021/05/19 04:05:05;;;;;;;9.70;8.80;;;;;;;;;;5072575;28;20471;-81
2021/05/19 04:07:32;;;;;;;10.10;8.80;;;;;;;;;;5071979;28;20454;-80
2021/05/19 04:09:59;;;;;;;10.63;8.87;;;;;;;;;;5059914;28;20429;-83
2021/05/19 04:12:26;;;;;;;9.20;8.30;;;;;;;;;;5061093;28;20483;-81
2021/05/19 04:14:53;;;;;;;9.90;8.90;;;;;;;;;;5069808;28;20475;-82
2021/05/19 04:17:20;;;;;;;9.67;8.67;;;;;;;;;;5069836;28;20537;-82
2021/05/19 04:19:47;;;;;;;9.00;8.03;;;;;;;;;;5069565;28;20453;-83
2021/05/19 04:22:14;;;;;;;9.50;8.53;;;;;;;;;;5071083;28;20837;-82
2021/05/19 04:24:41;;;;;;;8.90;8.00;;;;;;;;;;5071724;28;20487;-82
2021/05/19 04:27:08;;;;;;;12.83;9.80;;;;;;;;;;5072037;28;20449;-80
2021/05/19 04:29:34;;;;;;;11.23;8.47;;;;;;;;;;5071924;28;20531;-81
2021/05/19 04:32:02;;;;;;;9.40;8.20;;;;;;;;;;5060192;28;20477;-83
2021/05/19 04:34:29;;;;;;;9.60;8.63;;;;;;;;;;5055187;28;20461;-84
2021/05/19 04:36:55;;;;;;;9.37;8.47;;;;;;;;;;5052025;28;20482;-80
2021/05/19 04:39:22;;;;;;;8.03;7.23;;;;;;;;;;5051592;28;20452;-82
2021/05/19 04:41:49;;;;;;;7.33;6.63;;;;;;;;;;5053311;28;20964;-83
2021/05/19 04:44:16;;;;;;;8.20;7.50;;;;;;;;;;5064480;28;20484;-81
2021/05/19 04:46:43;;;;;;;9.10;8.20;;;;;;;;;;5075272;28;20489;-81
2021/05/19 04:49:11;;;;;;;8.23;7.43;;;;;;;;;;5075547;28;20869;-82
2021/05/19 04:51:38;;;;;;;7.63;6.90;;;;;;;;;;5070728;28;20436;-82
2021/05/19 04:54:05;;;;;;;7.70;6.90;;;;;;;;;;5060669;28;20476;-81
2021/05/19 04:56:31;;;;;;;7.83;7.13;;;;;;;;;;5070140;28;20444;-81
2021/05/19 04:58:58;;;;;;;7.60;6.37;;;;;;;;;;5072958;28;20813;-83
2021/05/19 05:01:25;;;;;;;7.23;6.53;;;;;;;;;;5072954;28;20443;-82
2021/05/19 05:03:52;;;;;;;7.40;6.23;;;;;;;;;;5072448;28;20809;-83
2021/05/19 05:06:19;;;;;;;7.80;7.00;;;;;;;;;;5075262;28;20436;-82
2021/05/19 05:08:49;;;;;;;7.97;6.33;;;;;;;;;;5075053;28;20442;-83
2021/05/19 05:11:16;;;;;;;7.50;6.67;;;;;;;;;;5075006;28;20440;-80
2021/05/19 05:13:42;;;;;;;7.13;6.00;;;;;;;;;;5070396;28;20472;-83
2021/05/19 05:16:09;;;;;;;7.00;6.30;;;;;;;;;;5060736;28;20440;-83
2021/05/19 05:18:36;;;;;;;6.67;5.83;;;;;;;;;;5054280;28;20433;-83
2021/05/19 05:21:03;;;;;;;6.67;5.97;;;;;;;;;;5052705;28;20492;-84
2021/05/19 05:23:31;;;;;;;7.43;5.83;;;;;;;;;;5052766;28;20447;-83
2021/05/19 05:26:03;;;;;;;5.63;4.70;;;;;;;;;;5056427;28;20475;-82
2021/05/19 05:28:30;;;;;;;9.40;5.53;;;;;;;;;;5067603;28;20430;-84
2021/05/19 05:30:57;;;;;;;8.20;5.60;;;;;;;;;;5060465;28;20515;-84
2021/05/19 05:33:30;;;;;;;5.57;5.00;;;;;;;;;;5068783;28;20475;-84
2021/05/19 05:35:56;;;;;;;8.37;5.80;;;;;;;;;;5067681;28;20461;-83
2021/05/19 05:38:23;;;;;;;9.90;5.60;;;;;;;;;;5068009;28;20802;-81
2021/05/19 05:40:51;;;;;;;6.60;5.17;;;;;;;;;;5072465;28;20464;-82
2021/05/19 05:43:18;;;;;;;6.70;5.50;;;;;;;;;;5074073;28;20444;-83
2021/05/19 05:45:44;;;;;;;6.80;5.80;;;;;;;;;;5074638;28;20464;-83
2021/05/19 05:48:11;;;;;;;7.97;6.10;;;;;;;;;;5074400;28;20454;-81
2021/05/19 05:50:38;;;;;;;8.57;5.77;;;;;;;;;;5070431;28;20960;-82
2021/05/19 05:53:05;;;;;;;22.20;7.10;;;;;;;;;;5063678;28;20480;-80
2021/05/19 05:55:32;;;;;;;8.23;5.43;;;;;;;;;;5067547;28;20459;-83
2021/05/19 05:58:00;;;;;;;11.80;5.40;;;;;;;;;;5071551;28;20444;-82
2021/05/19 06:00:26;;;;;;;7.07;5.37;;;;;;;;;;5071846;28;20451;-82
2021/05/19 06:02:53;;;;;;;7.77;5.90;;;;;;;;;;5071133;28;20455;-81
2021/05/19 06:05:20;;;;;;;8.77;4.83;;;;;;;;;;5069781;28;20683;-79
2021/05/19 06:07:46;;;;;;;6.67;4.70;;;;;;;;;;5059160;28;20452;-81
2021/05/19 06:10:14;;;;;;;5.63;4.83;;;;;;;;;;5066019;28;20805;-80
2021/05/19 06:12:41;;;;;;;7.90;4.70;;;;;;;;;;5070813;28;21117;-79
2021/05/19 06:15:09;;;;;;;5.40;4.40;;;;;;;;;;5070316;28;20460;-79
2021/05/19 06:17:36;;;;;;;5.30;4.57;;;;;;;;;;5071542;28;20444;-80
2021/05/19 06:20:03;;;;;;;8.73;4.40;;;;;;;;;;5073223;28;20874;-80
2021/05/19 06:22:30;;;;;;;8.43;5.07;;;;;;;;;;5073303;28;20440;-79
2021/05/19 06:24:57;;;;;;;6.03;4.67;;;;;;;;;;5072783;28;20969;-86
2021/05/19 06:27:24;;;;;;;6.33;5.17;;;;;;;;;;5069667;28;21245;-85
2021/05/19 06:29:51;;;;;;;7.10;4.70;;;;;;;;;;5062830;28;20444;-81
2021/05/19 06:32:19;;;;;;;4.80;4.10;;;;;;;;;;5057176;28;20468;-81
2021/05/19 06:34:46;;;;;;;9.90;4.97;;;;;;;;;;5048702;28;21032;-84
2021/05/19 06:37:12;;;;;;;6.43;3.27;;;;;;;;;;5065043;28;20415;-80
2021/05/19 06:39:39;;;;;;;6.30;3.40;;;;;;;;;;5068854;28;20917;-80
2021/05/19 06:42:06;;;;;;;8.33;3.70;;;;;;;;;;5070131;28;20464;-79
2021/05/19 06:44:33;;;;;;;6.20;3.30;;;;;;;;;;5057393;28;20530;-80
2021/05/19 06:47:00;;;;;;;5.40;3.67;;;;;;;;;;5064274;28;20873;-77
2021/05/19 06:49:28;;;;;;;4.30;2.40;;;;;;;;;;5071022;28;20427;-78
2021/05/19 06:51:54;;;;;;;5.73;2.77;;;;;;;;;;5070567;28;20415;-77
2021/05/19 06:54:22;;;;;;;7.37;3.17;;;;;;;;;;5070848;28;20459;-78
2021/05/19 06:56:50;;;;;;;3.83;2.20;;;;;;;;;;5072066;28;20442;-78
2021/05/19 06:59:17;;;;;;;7.20;3.33;;;;;;;;;;5071860;28;20494;-79
2021/05/19 07:01:44;;;;;;;5.27;2.50;;;;;;;;;;5070441;28;20801;-78
2021/05/19 07:04:11;;;;;;;6.13;3.47;;;;;;;;;;5072605;28;20464;-78
2021/05/19 07:06:39;;;;;;;3.03;2.30;;;;;;;;;;5064994;28;20452;-78
2021/05/19 07:09:06;;;;;;;5.67;2.80;;;;;;;;;;5058078;28;20520;-79
2021/05/19 07:11:33;;;;;;;5.47;2.40;;;;;;;;;;5056536;28;20506;-78
2021/05/19 07:14:01;;;;;;;4.67;2.73;;;;;;;;;;5070214;28;20487;-78
2021/05/19 07:16:30;;;;;;;4.10;2.73;;;;;;;;;;5070535;28;20483;-78
2021/05/19 07:18:57;;;;;;;5.00;2.67;;;;;;;;;;5070552;28;20495;-81
2021/05/19 07:21:24;;;;;;;4.00;2.80;;;;;;;;;;5072099;28;20450;-79
2021/05/19 07:23:57;;;;;;;9.37;3.53;;;;;;;;;;5072456;28;20446;-80
2021/05/19 07:26:24;;;;;;;7.37;2.77;;;;;;;;;;5072516;28;20536;-80
2021/05/19 07:28:52;;;;;;;4.17;2.60;;;;;;;;;;5068113;28;20448;-82
2021/05/19 07:31:18;;;;;;;5.57;2.90;;;;;;;;;;5051309;28;20500;-85
2021/05/19 07:33:47;;;;;;;6.00;2.90;;;;;;;;;;5048868;28;20516;-84
2021/05/19 07:36:14;;;;;;;8.47;2.97;;;;;;;;;;5049078;28;20433;-79
2021/05/19 07:38:41;;;;;;;3.77;2.13;;;;;;;;;;5069508;28;20440;-79
2021/05/19 07:41:09;;;;;;;6.30;2.83;;;;;;;;;;5069277;28;20459;-77
2021/05/19 07:43:35;;;;;;;3.47;1.97;;;;;;;;;;5071465;28;21097;-79
2021/05/19 07:46:02;;;;;;;6.43;2.80;;;;;;;;;;5071801;28;20585;-78
2021/05/19 07:48:29;;;;;;;6.37;2.07;;;;;;;;;;5071829;28;20440;-77
2021/05/19 07:50:56;;;;;;;4.60;2.73;;;;;;;;;;5071527;28;20452;-77
2021/05/19 07:53:23;;;;;;;7.10;2.57;;;;;;;;;;5057743;28;20865;-77
2021/05/19 07:55:54;;;;;;;8.67;2.17;;;;;;;;;;5059227;28;20465;-77
2021/05/19 07:58:24;;;;;;;3.30;2.03;;;;;;;;;;5069263;28;20494;-82
2021/05/19 08:01:03;;;;;;;5.30;2.77;;;;;;;;;;5069163;28;20549;-80
2021/05/19 08:03:31;;;;;;;5.80;2.40;;;;;;;;;;5069183;28;20440;-78
2021/05/19 08:05:57;;;;;;;3.50;1.70;;;;;;;;;;5070433;28;20511;-78
2021/05/19 08:08:24;;;;;;;5.20;2.03;;;;;;;;;;5057229;28;20441;-77
2021/05/19 08:10:51;;;;;;;6.20;2.50;;;;;;;;;;5051111;28;21017;-77
2021/05/19 08:13:18;;;;;;;6.53;2.23;;;;;;;;;;5056395;28;20479;-77
2021/05/19 08:15:46;;;;;;;3.93;2.20;;;;;;;;;;5065963;28;20462;-77
2021/05/19 08:18:13;;;;;;;2.87;1.87;;;;;;;;;;5060025;28;20471;-77
2021/05/19 08:20:40;;;;;;;5.23;2.63;;;;;;;;;;5052601;28;20453;-77
2021/05/19 08:23:07;;;;;;;4.83;1.80;;;;;;;;;;5070855;28;20493;-77
2021/05/19 08:25:34;;;;;;;5.33;2.10;;;;;;;;;;5071361;28;20483;-77
2021/05/19 08:28:01;;;;;;;7.30;2.77;;;;;;;;;;5070037;28;20483;-79
2021/05/19 08:30:28;;;;;;;3.53;1.77;;;;;;;;;;5059338;28;20448;-77
2021/05/19 08:32:56;;;;;;;3.80;1.50;;;;;;;;;;5059103;28;20471;-77
2021/05/19 08:35:22;;;;;;;4.73;1.97;;;;;;;;;;5071980;28;20456;-76
2021/05/19 08:37:49;;;;;;;8.73;1.77;;;;;;;;;;5071579;28;20454;-78
2021/05/19 08:40:16;;;;;;;3.50;2.03;;;;;;;;;;5063926;28;20824;-78
2021/05/19 08:42:43;;;;;;;2.87;1.97;;;;;;;;;;5060239;28;20441;-78
2021/05/19 08:45:10;;;;;;;3.30;2.00;;;;;;;;;;5064036;28;20791;-78
2021/05/19 08:47:37;;;;;;;3.73;1.80;;;;;;;;;;5071901;28;20786;-78
2021/05/19 08:50:06;;;;;;;5.77;1.57;;;;;;;;;;5071052;28;20446;-79
2021/05/19 08:52:38;;;;;;;4.97;1.73;;;;;;;;;;5072418;28;20444;-78
2021/05/19 08:55:09;;;;;;;3.40;1.80;;;;;;;;;;5068046;28;20534;-79
2021/05/19 08:57:38;;;;;;;4.03;2.00;;;;;;;;;;5074673;28;20543;-78
2021/05/19 09:00:07;;;;;;;2.77;1.60;;;;;;;;;;5074209;28;20474;-78
2021/05/19 09:02:33;;;;;;;4.77;1.73;;;;;;;;;;5074404;28;20463;-76
2021/05/19 09:05:01;;;;;;;5.90;1.70;;;;;;;;;;5065830;28;20911;-78
2021/05/19 09:07:28;;;;;;;2.47;1.93;;;;;;;;;;5059397;28;20427;-77
2021/05/19 09:09:55;;;;;;;5.77;1.93;;;;;;;;;;5069237;28;20805;-77
2021/05/19 09:12:22;;;;;;;5.40;1.90;;;;;;;;;;5071539;28;20422;-77
2021/05/19 09:15:01;;;;;;;3.53;1.70;;;;;;;;;;5071415;28;20439;-77
2021/05/19 09:17:30;;;;;;;7.13;2.00;;;;;;;;;;5067381;28;20815;-79
2021/05/19 09:20:01;;;;;;;4.13;1.70;;;;;;;;;;5060409;28;20932;-76
2021/05/19 09:22:30;;;;;;;6.30;1.57;;;;;;;;;;5062000;28;20530;-78
2021/05/19 09:24:57;;;;;;;2.20;1.30;;;;;;;;;;5074141;28;20552;-78
2021/05/19 09:27:25;;;;;;;2.57;1.60;;;;;;;;;;5063776;28;20448;-78
2021/05/19 09:29:52;;;;;;;4.17;1.80;;;;;;;;;;5059158;28;20510;-80
2021/05/19 09:32:20;;;;;;;3.67;1.73;;;;;;;;;;5070039;28;20443;-79
2021/05/19 09:34:49;;;;;;;5.40;1.70;;;;;;;;;;5070876;28;20848;-79
2021/05/19 09:37:18;;;;;;;3.67;1.33;;;;;;;;;;5072090;28;20802;-77
2021/05/19 09:39:47;;;;;;;4.03;1.53;;;;;;;;;;5071499;28;20460;-79
2021/05/19 09:42:14;;;;;;;1.87;1.50;;;;;;;;;;5059164;28;20449;-79
2021/05/19 09:44:43;;;;;;;3.77;1.50;;;;;;;;;;5053870;28;20457;-79
2021/05/19 09:47:10;;;;;;;4.20;1.87;;;;;;;;;;5053749;28;20502;-75
2021/05/19 09:49:37;;;;;;;2.80;1.60;;;;;;;;;;5054031;28;21001;-80
2021/05/19 09:52:09;;;;;;;6.00;2.20;;;;;;;;;;5059724;28;20444;-79
2021/05/19 09:54:38;;;;;;;5.33;1.90;;;;;;;;;;5066847;28;20480;-79
2021/05/19 09:57:07;;;;;;;3.50;1.73;;;;;;;;;;5070934;28;20444;-79
2021/05/19 09:59:34;;;;;;;3.40;1.60;;;;;;;;;;5057625;28;20445;-79
2021/05/19 10:02:01;;;;;;;4.00;1.57;;;;;;;;;;5052597;28;20522;-79
2021/05/19 10:04:31;;;;;;;4.27;1.80;;;;;;;;;;5073582;28;20456;-81
2021/05/19 10:06:58;;;;;;;3.80;1.77;;;;;;;;;;5073526;28;20478;-81
2021/05/19 10:09:25;;;;;;;2.53;1.37;;;;;;;;;;5070386;28;21045;-78
2021/05/19 10:11:52;;;;;;;2.37;1.33;;;;;;;;;;5053189;28;20449;-78
2021/05/19 10:14:21;;;;;;;5.70;2.40;;;;;;;;;;5058459;28;20925;-79
2021/05/19 10:16:51;;;;;;;3.53;1.77;;;;;;;;;;5055420;28;20610;-79
2021/05/19 10:19:22;;;;;;;3.57;1.70;;;;;;;;;;5050249;28;20449;-78
2021/05/19 10:21:49;;;;;;;2.30;1.37;;;;;;;;;;5051024;28;20836;-81
2021/05/19 10:24:15;;;;;;;4.47;1.60;;;;;;;;;;5066876;28;20460;-79
2021/05/19 10:26:57;;;;;;;3.70;1.80;;;;;;;;;;5072342;28;20492;-80
2021/05/19 10:29:38;;;;;;;3.03;1.40;;;;;;;;;;5070095;28;20776;-79
2021/05/19 10:32:28;;;;;;;4.53;1.80;;;;;;;;;;5052084;28;20445;-81
2021/05/19 10:34:56;;;;;;;5.27;1.50;;;;;;;;;;5055264;28;20460;-80
2021/05/19 10:37:37;;;;;;;3.10;1.70;;;;;;;;;;5056482;28;20433;-81
2021/05/19 10:40:19;;;;;;;5.03;1.63;;;;;;;;;;5063671;28;21071;-77
2021/05/19 10:42:53;;;;;;;5.90;1.80;;;;;;;;;;5070381;28;20439;-78
2021/05/19 10:45:21;;;;;;;4.83;2.03;;;;;;;;;;5069635;28;20468;-80
2021/05/19 10:47:49;;;;;;;3.30;1.60;;;;;;;;;;5070331;28;20482;-81
2021/05/19 10:50:24;;;;;;;5.87;1.90;;;;;;;;;;5072136;28;20440;-81
2021/05/19 10:58:30;;;;;;;4.37;2.00;;;;;;;;;;5066648;28;20475;-81
2021/05/19 11:00:57;;;;;;;4.17;2.00;;;;;;;;;;5056193;28;20440;-81
2021/05/19 11:03:25;;;;;;;4.30;1.80;;;;;;;;;;5067049;28;20793;-79
2021/05/19 11:06:07;;;;;;;5.37;2.00;;;;;;;;;;5069611;28;20696;-81
2021/05/19 11:08:35;;;;;;;4.90;1.83;;;;;;;;;;5069269;28;20479;-80
2021/05/19 11:11:15;;;;;;;3.30;1.80;;;;;;;;;;5069079;28;20452;-81
2021/05/19 11:13:58;;;;;;;3.87;1.70;;;;;;;;;;5071476;28;20563;-82
2021/05/19 11:16:28;;;;;;;3.93;1.50;;;;;;;;;;5070796;28;20526;-81
2021/05/19 11:19:04;;;;;;;3.10;1.70;;;;;;;;;;5068678;28;20451;-81
2021/05/19 11:21:31;;;;;;;3.10;1.30;;;;;;;;;;5066190;28;20725;-79
2021/05/19 11:24:00;;;;;;;2.50;1.70;;;;;;;;;;5057614;28;20782;-80
2021/05/19 11:26:35;;;;;;;4.60;1.63;;;;;;;;;;5066485;28;20464;-81
2021/05/19 11:29:03;;;;;;;4.70;1.60;;;;;;;;;;5069177;28;20519;-80
2021/05/19 11:31:33;;;;;;;3.83;1.60;;;;;;;;;;5065546;28;20793;-80
2021/05/19 11:34:04;;;;;;;3.80;1.63;;;;;;;;;;5051205;28;20504;-78
2021/05/19 11:36:33;;;;;;;4.00;1.47;;;;;;;;;;5050589;28;20455;-78
2021/05/19 11:39:03;;;;;;;6.60;1.80;;;;;;;;;;5051693;28;20437;-78
2021/05/19 11:41:29;;;;;;;6.00;1.70;;;;;;;;;;5051396;28;20475;-77
2021/05/19 11:43:58;;;;;;;4.67;1.80;;;;;;;;;;5052115;28;20461;-77
2021/05/19 11:46:25;;;;;;;4.97;1.70;;;;;;;;;;5057813;28;20512;-78
2021/05/19 11:48:52;;;;;;;4.97;1.27;;;;;;;;;;5059235;28;20445;-78
2021/05/19 11:51:21;;;;;;;3.90;1.60;;;;;;;;;;5049593;28;20498;-77
2021/05/19 11:53:58;;;;;;;2.60;1.40;;;;;;;;;;5051965;28;20484;-78
2021/05/19 11:56:25;;;;;;;3.37;1.37;;;;;;;;;;5049977;28;20453;-80
2021/05/19 11:58:52;;;;;;;1.93;1.00;;;;;;;;;;5071592;28;20466;-80
2021/05/19 12:01:19;;;;;;;4.43;1.50;;;;;;;;;;5069851;28;20448;-82
2021/05/19 12:03:47;;;;;;;1.87;1.50;;;;;;;;;;5062974;28;20452;-80
2021/05/19 12:06:15;;;;;;;2.53;1.40;;;;;;;;;;5054617;28;20448;-78
2021/05/19 12:08:45;;;;;;;2.27;1.10;;;;;;;;;;5058550;28;20453;-78
2021/05/19 12:11:12;;;;;;;2.60;1.20;;;;;;;;;;5052477;28;20457;-81
2021/05/19 12:13:40;;;;;;;2.93;1.13;;;;;;;;;;5049664;28;20567;-78
2021/05/19 12:16:07;;;;;;;2.07;1.10;;;;;;;;;;5067864;28;20892;-78
2021/05/19 12:18:34;;;;;;;1.50;1.00;;;;;;;;;;5067017;28;20452;-79
2021/05/19 12:21:08;;;;;;;2.30;1.07;;;;;;;;;;5069358;28;20521;-79
2021/05/19 12:23:36;;;;;;;1.10;0.90;;;;;;;;;;5069716;28;20945;-79
2021/05/19 12:26:03;;;;;;;2.20;1.07;;;;;;;;;;5060234;28;20473;-81
2021/05/19 12:28:31;;;;;;;1.67;1.10;;;;;;;;;;5056672;28;20448;-79
2021/05/19 12:30:59;;;;;;;1.03;0.90;;;;;;;;;;5068124;28;20446;-77
2021/05/19 12:33:27;;;;;;;2.77;1.43;;;;;;;;;;5066875;28;20881;-78
2021/05/19 12:35:54;;;;;;;1.40;1.00;;;;;;;;;;5067259;28;20737;-78
2021/05/19 12:38:24;;;;;;;2.20;1.00;;;;;;;;;;5061597;28;20456;-80
2021/05/19 12:40:52;;;;;;;2.50;0.97;;;;;;;;;;5071037;28;20526;-79
2021/05/19 12:43:24;;;;;;;2.20;1.30;;;;;;;;;;5067264;28;20446;-79
2021/05/19 12:45:52;;;;;;;1.40;1.30;;;;;;;;;;5055446;28;20469;-78
2021/05/19 12:48:20;;;;;;;2.50;1.10;;;;;;;;;;5062582;28;20540;-78
2021/05/19 12:50:48;;;;;;;1.30;1.00;;;;;;;;;;5056587;28;20452;-79
2021/05/19 12:53:29;;;;;;;1.13;0.97;;;;;;;;;;5061943;28;20521;-82
2021/05/19 12:55:59;;;;;;;1.47;1.27;;;;;;;;;;5062662;28;21003;-81
2021/05/19 12:58:29;;;;;;;2.67;1.20;;;;;;;;;;5064099;28;20859;-80
2021/05/19 13:00:56;;;;;;;2.30;1.17;;;;;;;;;;5061925;28;20452;-80
2021/05/19 13:03:34;;;;;;;1.87;1.17;;;;;;;;;;5073277;28;20785;-82
2021/05/19 13:06:01;;;;;;;2.53;1.40;;;;;;;;;;5074526;28;20508;-81
2021/05/19 13:08:28;;;;;;;3.70;1.40;;;;;;;;;;5070219;28;20495;-79
2021/05/19 13:10:55;;;;;;;1.10;0.93;;;;;;;;;;5066234;28;20477;-81
2021/05/19 13:13:28;;;;;;;1.83;0.93;;;;;;;;;;5059486;28;20539;-79
2021/05/19 13:16:00;;;;;;;1.40;1.07;;;;;;;;;;5054020;28;20917;-79
2021/05/19 13:18:32;;;;;;;2.13;1.00;;;;;;;;;;5072013;28;20423;-80
2021/05/19 13:21:07;;;;;;;1.33;1.10;;;;;;;;;;5070507;28;20498;-82
2021/05/19 13:23:48;;;;;;;1.93;1.13;;;;;;;;;;5072564;28;20979;-80
2021/05/19 13:26:16;;;;;;;1.70;1.40;;;;;;;;;;5072750;28;20451;-81
2021/05/19 13:28:44;;;;;;;1.40;0.87;;;;;;;;;;5074035;28;20454;-80
2021/05/19 13:31:12;;;;;;;1.30;1.10;;;;;;;;;;5074023;28;20440;-80
2021/05/19 13:33:54;;;;;;;1.70;1.07;;;;;;;;;;5064748;28;20990;-80
2021/05/19 13:36:31;;;;;;;2.43;1.23;;;;;;;;;;5058353;28;20862;-81
2021/05/19 13:39:00;;;;;;;1.23;0.90;;;;;;;;;;5051675;28;20881;-82
2021/05/19 13:41:27;;;;;;;1.53;1.10;;;;;;;;;;5051085;28;20879;-80
2021/05/19 13:43:54;;;;;;;3.23;1.10;;;;;;;;;;5051323;28;20456;-81
2021/05/19 13:46:22;;;;;;;1.10;1.00;;;;;;;;;;5064394;28;20464;-79
2021/05/19 13:48:49;;;;;;;1.93;1.20;;;;;;;;;;5073794;28;20841;-81
2021/05/19 13:51:16;;;;;;;2.73;1.20;;;;;;;;;;5073569;28;20805;-80
2021/05/19 13:53:42;;;;;;;1.40;1.07;;;;;;;;;;5073479;28;20548;-80
2021/05/19 13:56:10;;;;;;;1.87;1.00;;;;;;;;;;5064043;28;20419;-81
2021/05/19 13:58:38;;;;;;;1.90;1.13;;;;;;;;;;5060837;28;20448;-79
2021/05/19 14:01:07;;;;;;;1.63;1.00;;;;;;;;;;5071191;28;20495;-80
2021/05/19 14:03:35;;;;;;;1.07;0.97;;;;;;;;;;5071272;28;20482;-80
2021/05/19 14:06:02;;;;;;;1.00;0.80;;;;;;;;;;5071420;28;20519;-81
2021/05/19 14:08:29;;;;;;;1.50;0.90;;;;;;;;;;5072088;28;20452;-79
2021/05/19 14:11:01;;;;;;;4.30;1.03;;;;;;;;;;5073194;28;20813;-80
2021/05/19 14:13:32;;;;;;;1.33;1.00;;;;;;;;;;5071831;28;20559;-81
2021/05/19 14:16:09;;;;;;;3.77;0.90;;;;;;;;;;5064482;28;20444;-79
2021/05/19 14:18:52;;;;;;;1.17;0.90;;;;;;;;;;5057614;28;20527;-78
2021/05/19 14:29:22;;;;;;;4.40;1.00;;;;;;;;;;5070877;28;20490;-79
2021/05/19 14:31:49;;;;;;;1.93;1.00;;;;;;;;;;5059580;28;20556;-78
2021/05/19 14:34:16;;;;;;;1.37;1.20;;;;;;;;;;5062292;28;20541;-80
2021/05/19 14:37:06;;;;;;;1.40;1.03;;;;;;;;;;5070967;28;20451;-79
2021/05/19 14:45:16;;;;;;;1.73;1.17;;;;;;;;;;5051491;28;20453;-78
2021/05/19 15:01:09;;;;;;;1.93;1.40;;;;;;;;;;5068082;28;20784;-77
2021/05/19 15:03:36;;;;;;;3.40;1.73;;;;;;;;;;5068700;28;20447;-78
2021/05/19 15:06:04;;;;;;;2.57;1.50;;;;;;;;;;5065322;28;20866;-80
2021/05/19 15:08:31;;;;;;;2.27;1.40;;;;;;;;;;5058041;28;20432;-79
2021/05/19 15:11:00;;;;;;;2.37;1.40;;;;;;;;;;5053205;28;20487;-79
2021/05/19 15:13:27;;;;;;;2.03;1.40;;;;;;;;;;5050075;28;20455;-78
2021/05/19 15:15:54;;;;;;;1.80;1.30;;;;;;;;;;5053193;28;20793;-82
2021/05/19 15:18:21;;;;;;;2.10;1.50;;;;;;;;;;5065192;28;20526;-80
2021/05/19 15:20:48;;;;;;;1.40;1.30;;;;;;;;;;5056154;28;20446;-80
2021/05/19 15:23:16;;;;;;;2.03;1.50;;;;;;;;;;5060220;28;20446;-81
2021/05/19 15:25:47;;;;;;;2.50;1.50;;;;;;;;;;5051611;28;20444;-80
2021/05/19 15:28:14;;;;;;;4.43;2.10;;;;;;;;;;5061735;28;20455;-83
2021/05/19 15:30:41;;;;;;;3.63;1.93;;;;;;;;;;5060212;28;20449;-80
2021/05/19 15:33:08;;;;;;;3.00;1.80;;;;;;;;;;5060019;28;20440;-80
2021/05/19 15:35:35;;;;;;;3.77;1.70;;;;;;;;;;5058754;28;20431;-78
2021/05/19 15:38:02;;;;;;;3.87;2.47;;;;;;;;;;5049753;28;20514;-80
2021/05/19 15:40:30;;;;;;;4.00;1.90;;;;;;;;;;5049565;28;20442;-79
2021/05/19 15:42:58;;;;;;;6.83;2.30;;;;;;;;;;5063038;28;20460;-79
2021/05/19 15:45:25;;;;;;;6.17;3.23;;;;;;;;;;5071137;28;20522;-80
2021/05/19 15:47:52;;;;;;;3.33;2.70;;;;;;;;;;5071274;28;20423;-77
2021/05/19 15:50:19;;;;;;;2.90;2.33;;;;;;;;;;5071899;28;20683;-79
2021/05/19 15:52:46;;;;;;;5.03;2.70;;;;;;;;;;5063653;28;20427;-77
2021/05/19 15:55:13;;;;;;;3.80;2.80;;;;;;;;;;5057396;28;20504;-77
2021/05/19 15:57:41;;;;;;;3.90;2.90;;;;;;;;;;5049272;28;20620;-80
2021/05/19 16:00:10;;;;;;;5.23;2.80;;;;;;;;;;5049183;28;20488;-82
2021/05/19 16:02:37;;;;;;;8.83;3.20;;;;;;;;;;5060872;28;20444;-79
2021/05/19 16:05:04;;;;;;;4.47;2.53;;;;;;;;;;5070238;28;20507;-81
2021/05/19 16:07:31;;;;;;;4.00;2.83;;;;;;;;;;5071576;28;20493;-77
2021/05/19 16:09:58;;;;;;;4.50;3.20;;;;;;;;;;5071550;28;20448;-77